Time,TemperatureF,DewpointF,PressureIn,WindDirection,WindDirectionDegrees,WindSpeedMPH,WindSpeedGustMPH,Humidity,HourlyPrecipIn,Conditions,Clouds,dailyrainin,SolarRadiationWatts/m^2,SoftwareType,DateUTC
2013-06-23 00:05:00,54.9,53.0,29.90,WSW,258,5.0,16.0,92,0.00,,,0.00,0,weatherlink.com 1.10,2013-06-23 07:05:00,
2013-06-23 00:20:00,54.6,52.0,29.90,NNW,328,10.0,16.0,92,0.00,,,0.00,0,weatherlink.com 1.10,2013-06-23 07:20:00,
2013-06-23 00:35:00,54.4,53.0,29.90,WSW,251,11.0,24.0,93,0.00,,,0.00,0,weatherlink.com 1.10,2013-06-23 07:35:00,
2013-06-23 00:50:00,54.1,52.0,29.89,West,261,8.0,18.0,93,0.00,,,0.00,0,weatherlink.com 1.10,2013-06-23 07:50:00,
2013-06-23 01:05:00,54.0,52.0,29.89,West,265,8.0,19.0,93,0.00,,,0.00,0,weatherlink.com 1.10,2013-06-23 08:05:00,
2013-06-23 01:20:00,53.9,52.0,29.89,WNW,285,7.0,16.0,93,0.00,,,0.00,0,weatherlink.com 1.10,2013-06-23 08:20:00,
2013-06-23 01:35:00,53.8,52.0,29.89,West,267,11.0,22.0,94,0.00,,,0.00,0,weatherlink.com 1.10,2013-06-23 08:35:00,
2013-06-23 01:50:00,53.7,52.0,29.89,WNW,282,6.0,16.0,94,0.00,,,0.00,0,weatherlink.com 1.10,2013-06-23 08:50:00,
2013-06-23 02:05:00,53.7,52.0,29.89,WNW,283,4.0,18.0,94,0.00,,,0.00,0,weatherlink.com 1.10,2013-06-23 09:05:00,
2013-06-23 02:20:00,53.8,52.0,29.89,WSW,250,6.0,17.0,94,0.00,,,0.00,0,weatherlink.com 1.10,2013-06-23 09:20:00,
2013-06-23 02:35:00,53.9,52.0,29.89,West,276,12.0,17.0,94,0.00,,,0.00,0,weatherlink.com 1.10,2013-06-23 09:35:00,
2013-06-23 02:50:00,53.9,52.0,29.89,WSW,247,9.0,17.0,94,0.00,,,0.00,0,weatherlink.com 1.10,2013-06-23 09:50:00,
2013-06-23 03:05:00,54.0,52.0,29.89,SW,235,7.0,14.0,94,0.00,,,0.00,0,weatherlink.com 1.10,2013-06-23 10:05:00,
2013-06-23 03:20:00,54.0,52.0,29.89,WSW,243,10.0,14.0,94,0.00,,,0.00,0,weatherlink.com 1.10,2013-06-23 10:20:00,
2013-06-23 03:35:00,54.2,53.0,29.88,ENE,57,2.0,22.0,94,0.00,,,0.00,0,weatherlink.com 1.10,2013-06-23 10:35:00,
2013-06-23 03:50:00,54.5,53.0,29.88,West,268,3.0,13.0,95,0.00,,,0.00,0,weatherlink.com 1.10,2013-06-23 10:50:00,
2013-06-23 04:05:00,54.7,53.0,29.88,NNW,347,7.0,18.0,94,0.00,,,0.00,0,weatherlink.com 1.10,2013-06-23 11:05:00,
2013-06-23 04:20:00,54.9,53.0,29.88,SW,215,4.0,17.0,94,0.00,,,0.00,0,weatherlink.com 1.10,2013-06-23 11:20:00,
2013-06-23 04:35:00,54.8,53.0,29.89,West,281,8.0,15.0,94,0.00,,,0.00,0,weatherlink.com 1.10,2013-06-23 11:35:00,
2013-06-23 04:50:00,54.9,53.0,29.89,West,269,13.0,16.0,94,0.00,,,0.00,0,weatherlink.com 1.10,2013-06-23 11:50:00,
2013-06-23 05:05:00,54.9,53.0,29.89,SSW,208,3.0,12.0,94,0.00,,,0.00,0,weatherlink.com 1.10,2013-06-23 12:05:00,
2013-06-23 05:20:00,55.0,54.0,29.89,WSW,245,10.0,12.0,95,0.00,,,0.00,0,weatherlink.com 1.10,2013-06-23 12:20:00,
2013-06-23 05:35:00,55.3,54.0,29.89,West,266,2.0,12.0,95,0.00,,,0.00,0,weatherlink.com 1.10,2013-06-23 12:35:00,
2013-06-23 05:50:00,55.4,54.0,29.89,WSW,241,7.0,14.0,95,0.00,,,0.00,5,weatherlink.com 1.10,2013-06-23 12:50:00,
2013-06-23 06:05:00,55.6,54.0,29.88,WNW,283,4.0,13.0,95,0.00,,,0.00,12,weatherlink.com 1.10,2013-06-23 13:05:00,
2013-06-23 06:20:00,55.7,54.0,29.89,WSW,245,2.0,7.0,95,0.00,,,0.00,12,weatherlink.com 1.10,2013-06-23 13:20:00,
2013-06-23 06:35:00,55.7,54.0,29.89,WNW,298,4.0,14.0,95,0.00,,,0.00,14,weatherlink.com 1.10,2013-06-23 13:35:00,
2013-06-23 06:50:00,56.0,55.0,29.89,West,268,1.0,6.0,95,0.00,,,0.00,26,weatherlink.com 1.10,2013-06-23 13:50:00,
2013-06-23 07:06:00,56.0,55.0,29.89,ENE,71,0.0,8.0,95,0.00,,,0.00,47,weatherlink.com 1.10,2013-06-23 14:06:00,
2013-06-23 07:20:00,56.0,55.0,29.89,SSW,205,3.0,9.0,95,0.00,,,0.00,44,weatherlink.com 1.10,2013-06-23 14:20:00,
2013-06-23 07:35:00,56.0,55.0,29.90,SW,227,5.0,10.0,95,0.00,,,0.00,53,weatherlink.com 1.10,2013-06-23 14:35:00,
2013-06-23 07:50:00,56.0,55.0,29.89,WSW,238,4.0,10.0,95,0.00,,,0.00,53,weatherlink.com 1.10,2013-06-23 14:50:00,
2013-06-23 08:06:00,56.2,55.0,29.90,NNW,335,3.0,10.0,95,0.00,,,0.00,102,weatherlink.com 1.10,2013-06-23 15:06:00,
2013-06-23 08:21:00,56.3,55.0,29.90,SSW,210,2.0,5.0,95,0.00,,,0.00,100,weatherlink.com 1.10,2013-06-23 15:21:00,
2013-06-23 08:36:00,56.0,54.0,29.90,WSW,258,2.0,13.0,94,0.00,,,0.00,60,weatherlink.com 1.10,2013-06-23 15:36:00,
2013-06-23 08:51:00,55.7,54.0,29.91,SW,235,3.0,8.0,94,0.00,,,0.00,69,weatherlink.com 1.10,2013-06-23 15:51:00,
2013-06-23 09:06:00,55.9,54.0,29.91,NW,309,5.0,9.0,94,0.00,,,0.00,111,weatherlink.com 1.10,2013-06-23 16:06:00,
2013-06-23 09:21:00,56.0,54.0,29.92,WSW,245,6.0,11.0,94,0.00,,,0.00,100,weatherlink.com 1.10,2013-06-23 16:21:00,
2013-06-23 09:36:00,56.3,55.0,29.93,WNW,293,5.0,9.0,95,0.00,,,0.00,127,weatherlink.com 1.10,2013-06-23 16:36:00,
2013-06-23 09:51:00,56.3,55.0,29.92,SSW,201,4.0,11.0,94,0.00,,,0.00,214,weatherlink.com 1.10,2013-06-23 16:51:00,
2013-06-23 10:06:00,56.9,56.0,29.92,SSW,208,2.0,4.0,95,0.00,,,0.00,190,weatherlink.com 1.10,2013-06-23 17:06:00,
2013-06-23 10:21:00,57.8,56.0,29.91,SSW,208,5.0,8.0,94,0.00,,,0.00,279,weatherlink.com 1.10,2013-06-23 17:21:00,
2013-06-23 10:36:00,58.9,57.0,29.91,WSW,246,0.0,7.0,93,0.00,,,0.00,244,weatherlink.com 1.10,2013-06-23 17:36:00,
2013-06-23 10:51:00,59.9,57.0,29.92,WNW,287,3.0,7.0,91,0.00,,,0.00,139,weatherlink.com 1.10,2013-06-23 17:51:00,
2013-06-23 11:06:00,59.9,57.0,29.92,WSW,252,4.0,11.0,90,0.00,,,0.00,128,weatherlink.com 1.10,2013-06-23 18:06:00,
2013-06-23 11:21:00,59.5,56.0,29.93,SSW,193,4.0,9.0,89,0.00,,,0.00,97,weatherlink.com 1.10,2013-06-23 18:21:00,
2013-06-23 11:36:00,59.2,56.0,29.92,SW,217,1.0,7.0,90,0.00,,,0.00,90,weatherlink.com 1.10,2013-06-23 18:36:00,
2013-06-23 11:51:00,59.4,57.0,29.92,SSW,197,1.0,5.0,91,0.00,,,0.00,128,weatherlink.com 1.10,2013-06-23 18:51:00,
2013-06-23 12:06:00,59.6,57.0,29.92,SW,225,4.0,6.0,91,0.00,,,0.00,93,weatherlink.com 1.10,2013-06-23 19:06:00,
2013-06-23 12:21:00,59.2,57.0,29.92,WNW,285,4.0,9.0,91,0.00,,,0.00,151,weatherlink.com 1.10,2013-06-23 19:21:00,
2013-06-23 12:36:00,59.5,57.0,29.91,South,188,2.0,8.0,92,0.00,,,0.00,116,weatherlink.com 1.10,2013-06-23 19:36:00,
2013-06-23 12:51:00,59.7,57.0,29.92,SSW,202,3.0,8.0,92,0.00,,,0.00,125,weatherlink.com 1.10,2013-06-23 19:51:00,
2013-06-23 13:06:00,60.1,58.0,29.92,WSW,242,5.0,7.0,92,0.00,,,0.00,109,weatherlink.com 1.10,2013-06-23 20:06:00,
2013-06-23 13:21:00,60.6,58.0,29.91,SW,216,7.0,10.0,92,0.00,,,0.00,234,weatherlink.com 1.10,2013-06-23 20:21:00,
2013-06-23 13:36:00,61.3,59.0,29.90,SSW,207,3.0,8.0,92,0.00,,,0.00,299,weatherlink.com 1.10,2013-06-23 20:36:00,
2013-06-23 13:51:00,62.1,60.0,29.90,SW,219,8.0,9.0,91,0.00,,,0.00,446,weatherlink.com 1.10,2013-06-23 20:51:00,
2013-06-23 14:06:00,63.3,60.0,29.89,West,259,4.0,10.0,89,0.00,,,0.00,457,weatherlink.com 1.10,2013-06-23 21:06:00,
2013-06-23 14:21:00,64.3,60.0,29.89,West,281,4.0,11.0,86,0.00,,,0.00,366,weatherlink.com 1.10,2013-06-23 21:21:00,
2013-06-23 14:36:00,64.5,60.0,29.90,WSW,257,3.0,11.0,85,0.00,,,0.00,320,weatherlink.com 1.10,2013-06-23 21:36:00,
2013-06-23 14:51:00,64.4,60.0,29.90,SW,223,6.0,9.0,86,0.00,,,0.00,220,weatherlink.com 1.10,2013-06-23 21:51:00,
2013-06-23 15:06:00,63.6,60.0,29.90,SW,228,5.0,10.0,88,0.00,,,0.00,236,weatherlink.com 1.10,2013-06-23 22:06:00,
2013-06-23 15:21:00,63.2,60.0,29.89,SW,228,5.0,8.0,89,0.00,,,0.00,332,weatherlink.com 1.10,2013-06-23 22:21:00,
2013-06-23 15:36:00,63.6,60.0,29.89,WSW,246,5.0,12.0,87,0.00,,,0.00,218,weatherlink.com 1.10,2013-06-23 22:36:00,
2013-06-23 15:51:00,63.1,59.0,29.89,SW,223,7.0,11.0,86,0.00,,,0.00,220,weatherlink.com 1.10,2013-06-23 22:51:00,
2013-06-23 16:06:00,63.1,59.0,29.88,WSW,243,4.0,11.0,86,0.00,,,0.00,329,weatherlink.com 1.10,2013-06-23 23:06:00,
2013-06-23 16:21:00,63.8,60.0,29.88,South,187,8.0,11.0,87,0.00,,,0.00,374,weatherlink.com 1.10,2013-06-23 23:21:00,
2013-06-23 16:36:00,63.9,59.0,29.88,SW,220,5.0,12.0,85,0.00,,,0.00,466,weatherlink.com 1.10,2013-06-23 23:36:00,
2013-06-23 16:51:00,64.1,59.0,29.89,SSW,209,4.0,11.0,84,0.00,,,0.00,425,weatherlink.com 1.10,2013-06-23 23:51:00,
2013-06-23 17:06:00,63.4,59.0,29.88,SSW,193,9.0,10.0,84,0.00,,,0.00,315,weatherlink.com 1.10,2013-06-24 00:06:00,
2013-06-23 17:21:00,63.4,59.0,29.88,WSW,239,7.0,9.0,85,0.00,,,0.00,283,weatherlink.com 1.10,2013-06-24 00:21:00,
2013-06-23 17:36:00,63.0,59.0,29.88,SW,233,4.0,11.0,85,0.00,,,0.00,230,weatherlink.com 1.10,2013-06-24 00:36:00,
2013-06-23 17:51:00,62.9,58.0,29.88,SSW,211,5.0,10.0,85,0.00,,,0.00,411,weatherlink.com 1.10,2013-06-24 00:51:00,
2013-06-23 18:07:00,62.6,58.0,29.87,South,183,6.0,10.0,85,0.00,,,0.00,236,weatherlink.com 1.10,2013-06-24 01:07:00,
2013-06-23 18:22:00,62.7,58.0,29.87,WSW,256,7.0,8.0,84,0.00,,,0.00,221,weatherlink.com 1.10,2013-06-24 01:22:00,
2013-06-23 18:37:00,62.5,58.0,29.87,WSW,240,5.0,10.0,84,0.00,,,0.00,214,weatherlink.com 1.10,2013-06-24 01:37:00,
2013-06-23 18:52:00,62.2,57.0,29.87,WSW,245,7.0,7.0,84,0.00,,,0.00,221,weatherlink.com 1.10,2013-06-24 01:52:00,
2013-06-23 19:07:00,62.3,57.0,29.87,SSW,193,7.0,8.0,84,0.00,,,0.00,128,weatherlink.com 1.10,2013-06-24 02:07:00,
2013-06-23 19:22:00,61.9,57.0,29.87,SW,236,5.0,8.0,84,0.00,,,0.00,70,weatherlink.com 1.10,2013-06-24 02:22:00,
2013-06-23 19:37:00,61.1,57.0,29.86,SW,225,4.0,6.0,86,0.00,,,0.00,49,weatherlink.com 1.10,2013-06-24 02:37:00,
2013-06-23 19:52:00,60.8,57.0,29.86,SSW,210,2.0,6.0,86,0.00,,,0.00,33,weatherlink.com 1.10,2013-06-24 02:52:00,
2013-06-23 20:07:00,60.3,57.0,29.86,WNW,287,0.0,6.0,87,0.00,,,0.00,9,weatherlink.com 1.10,2013-06-24 03:07:00,
2013-06-23 20:22:00,59.8,56.0,29.86,SW,230,1.0,6.0,88,0.00,,,0.00,0,weatherlink.com 1.10,2013-06-24 03:22:00,
2013-06-23 20:37:00,59.3,56.0,29.86,WSW,240,1.0,6.0,89,0.00,,,0.00,0,weatherlink.com 1.10,2013-06-24 03:37:00,
2013-06-23 20:52:00,59.1,56.0,29.86,SSW,213,3.0,6.0,90,0.00,,,0.00,0,weatherlink.com 1.10,2013-06-24 03:52:00,
2013-06-23 21:07:00,58.9,56.0,29.87,SW,221,4.0,5.0,90,0.00,,,0.00,0,weatherlink.com 1.10,2013-06-24 04:07:00,
2013-06-23 21:22:00,58.9,56.0,29.86,SSW,206,2.0,5.0,91,0.00,,,0.00,0,weatherlink.com 1.10,2013-06-24 04:22:00,
2013-06-23 21:37:00,58.9,56.0,29.86,SW,225,3.0,5.0,91,0.00,,,0.00,0,weatherlink.com 1.10,2013-06-24 04:37:00,
2013-06-23 21:52:00,58.6,56.0,29.86,South,187,3.0,5.0,91,0.00,,,0.00,0,weatherlink.com 1.10,2013-06-24 04:52:00,
2013-06-23 22:07:00,58.5,56.0,29.87,NW,320,2.0,5.0,91,0.00,,,0.00,0,weatherlink.com 1.10,2013-06-24 05:07:00,
2013-06-23 22:22:00,58.4,56.0,29.87,SSW,206,4.0,8.0,92,0.00,,,0.00,0,weatherlink.com 1.10,2013-06-24 05:22:00,
2013-06-23 22:37:00,58.2,56.0,29.86,South,189,4.0,8.0,92,0.00,,,0.00,0,weatherlink.com 1.10,2013-06-24 05:37:00,
2013-06-23 22:52:00,58.1,56.0,29.86,South,180,3.0,7.0,92,0.00,,,0.00,0,weatherlink.com 1.10,2013-06-24 05:52:00,
2013-06-23 23:07:00,58.0,56.0,29.86,SW,225,2.0,5.0,92,0.00,,,0.00,0,weatherlink.com 1.10,2013-06-24 06:07:00,
2013-06-23 23:22:00,57.7,55.0,29.86,WSW,258,3.0,6.0,92,0.00,,,0.00,0,weatherlink.com 1.10,2013-06-24 06:22:00,
2013-06-23 23:37:00,57.2,55.0,29.86,WSW,254,2.0,8.0,92,0.00,,,0.00,0,weatherlink.com 1.10,2013-06-24 06:37:00,
2013-06-23 23:52:00,56.3,54.0,29.86,WNW,282,6.0,10.0,92,0.00,,,0.00,0,weatherlink.com 1.10,2013-06-24 06:52:00,